createdAt,value
2023-01-21T00:01:20.374Z,1.52
2023-01-21T00:03:48.876Z,3.33
2023-01-21T00:06:17.268Z,2.22
2023-01-21T00:08:45.728Z,1.92
2023-01-21T00:11:15.590Z,1.17
2023-01-21T00:13:44.703Z,1.98
2023-01-21T00:16:14.884Z,2.30
2023-01-21T00:18:43.600Z,1.92
2023-01-21T00:21:11.776Z,1.87
2023-01-21T00:23:40.189Z,1.83
2023-01-21T00:26:12.056Z,1.60
2023-01-21T00:28:43.810Z,1.33
2023-01-21T00:31:13.035Z,1.70
2023-01-21T00:33:41.361Z,2.50
2023-01-21T00:36:12.134Z,1.98
2023-01-21T00:38:40.715Z,1.42
2023-01-21T00:41:11.874Z,1.87
2023-01-21T00:43:42.024Z,1.35
2023-01-21T00:46:11.198Z,2.12
2023-01-21T00:48:40.427Z,1.98
2023-01-21T00:51:10.207Z,1.70
2023-01-21T00:53:42.068Z,2.40
2023-01-21T00:56:12.911Z,2.20
2023-01-21T00:58:43.538Z,2.00
2023-01-21T01:01:15.555Z,3.00
2023-01-21T01:03:44.727Z,2.70
2023-01-21T01:06:21.783Z,2.30
2023-01-21T01:08:50.341Z,1.90
2023-01-21T01:11:21.720Z,2.37
2023-01-21T01:13:49.920Z,2.10
2023-01-21T01:16:18.946Z,2.42
2023-01-21T01:18:47.288Z,2.30
2023-01-21T01:21:18.805Z,1.77
2023-01-21T01:23:48.766Z,2.95
2023-01-21T01:26:18.454Z,2.65
2023-01-21T01:28:47.691Z,1.70
2023-01-21T01:31:18.068Z,2.03
2023-01-21T01:33:47.398Z,2.33
2023-01-21T01:36:23.913Z,2.62
2023-01-21T01:38:54.017Z,2.40
2023-01-21T01:41:27.784Z,2.10
2023-01-21T01:44:01.939Z,2.33
2023-01-21T01:46:33.012Z,2.35
2023-01-21T01:49:13.372Z,1.50
2023-01-21T01:51:45.404Z,2.55
2023-01-21T01:54:17.673Z,1.62
2023-01-21T01:56:50.954Z,1.92
2023-01-21T01:59:20.119Z,1.48
2023-01-21T02:01:48.767Z,1.77
2023-01-21T02:04:27.464Z,1.60
2023-01-21T02:06:57.573Z,2.10
2023-01-21T02:09:30.009Z,2.55
2023-01-21T02:12:03.602Z,1.25
2023-01-21T02:14:36.788Z,1.83
2023-01-21T02:17:20.385Z,1.73
2023-01-21T02:20:06.159Z,1.87
2023-01-21T02:22:34.792Z,2.15
2023-01-21T02:25:40.642Z,1.00
2023-01-21T02:31:04.189Z,1.30
2023-01-21T02:33:54.451Z,3.25
2023-01-21T02:36:25.606Z,1.30
2023-01-21T02:39:03.684Z,2.20
2023-01-21T02:41:54.750Z,1.58
2023-01-21T02:44:42.997Z,0.75
2023-01-21T02:47:16.065Z,1.60
2023-01-21T02:49:53.815Z,1.50
2023-01-21T02:52:24.046Z,1.35
2023-01-21T02:54:55.329Z,1.15
2023-01-21T02:57:37.549Z,1.58
2023-01-21T03:00:11.330Z,1.58
2023-01-21T03:03:13.376Z,1.37
2023-01-21T03:05:53.676Z,1.42
2023-01-21T03:08:27.122Z,1.37
2023-01-21T03:11:13.179Z,1.15
2023-01-21T03:14:08.202Z,2.03
2023-01-21T03:16:59.385Z,1.42
2023-01-21T03:19:53.449Z,1.50
2023-01-21T03:22:26.341Z,1.40
2023-01-21T03:24:57.952Z,0.82
2023-01-21T03:27:28.478Z,0.62
2023-01-21T03:30:05.950Z,1.50
2023-01-21T03:32:36.271Z,1.98
2023-01-21T03:35:07.279Z,1.27
2023-01-21T03:38:23.312Z,1.75
2023-01-21T03:41:07.862Z,1.00
2023-01-21T03:43:36.285Z,1.48
2023-01-21T03:46:10.000Z,1.23
2023-01-21T03:48:55.533Z,0.73
2023-01-21T03:51:31.848Z,1.37
2023-01-21T03:54:00.739Z,1.10
2023-01-21T03:56:29.223Z,1.35
2023-01-21T03:58:57.717Z,1.27
2023-01-21T04:01:26.165Z,1.33
2023-01-21T04:03:55.282Z,1.77
2023-01-21T04:06:23.994Z,1.58
2023-01-21T04:08:52.207Z,1.60
2023-01-21T04:11:20.623Z,1.23
2023-01-21T04:13:49.180Z,1.60
2023-01-21T04:16:17.302Z,1.30
2023-01-21T04:18:47.668Z,1.27
2023-01-21T04:21:16.192Z,1.65
2023-01-21T04:23:44.287Z,1.62
2023-01-21T04:26:12.805Z,1.90
2023-01-21T04:28:42.496Z,1.40
2023-01-21T04:31:11.084Z,1.87
2023-01-21T04:33:39.733Z,1.23
2023-01-21T04:36:08.380Z,1.37
2023-01-21T04:38:36.743Z,1.50
2023-01-21T04:41:05.585Z,1.77
2023-01-21T04:43:33.831Z,1.25
2023-01-21T04:46:01.999Z,2.05
2023-01-21T04:48:32.021Z,1.75
2023-01-21T04:51:00.367Z,1.42
2023-01-21T04:53:28.534Z,1.65
2023-01-21T04:55:57.342Z,2.22
2023-01-21T04:58:26.980Z,2.50
2023-01-21T05:00:55.645Z,2.80
2023-01-21T05:03:24.455Z,1.15
2023-01-21T05:05:52.849Z,2.05
2023-01-21T05:08:21.047Z,1.80
2023-01-21T05:10:49.618Z,2.17
2023-01-21T05:13:17.900Z,2.37
2023-01-21T05:15:46.084Z,1.08
2023-01-21T05:18:14.558Z,2.10
2023-01-21T05:20:42.617Z,1.10
2023-01-21T05:23:11.713Z,2.40
2023-01-21T05:25:40.505Z,1.23
2023-01-21T05:28:08.701Z,3.08
2023-01-21T05:30:39.896Z,2.62
2023-01-21T05:33:09.007Z,2.17
2023-01-21T05:35:37.405Z,2.83
2023-01-21T05:38:05.798Z,2.37
2023-01-21T05:40:34.384Z,2.00
2023-01-21T05:43:02.630Z,1.98
2023-01-21T05:45:30.662Z,1.95
2023-01-21T05:47:59.486Z,2.72
2023-01-21T05:50:27.888Z,2.72
2023-01-21T05:52:55.991Z,2.92
2023-01-21T05:55:24.437Z,2.70
2023-01-21T05:57:52.834Z,2.05
2023-01-21T06:00:21.447Z,1.60
2023-01-21T06:02:49.949Z,2.58
2023-01-21T06:05:18.251Z,1.83
2023-01-21T06:07:46.409Z,1.98
2023-01-21T06:10:15.654Z,1.08
2023-01-21T06:12:44.563Z,1.98
2023-01-21T06:15:14.040Z,1.77
2023-01-21T06:17:42.581Z,2.60
2023-01-21T06:20:11.539Z,1.73
2023-01-21T06:22:41.896Z,1.42
2023-01-21T06:25:11.048Z,1.37
2023-01-21T06:27:39.264Z,1.42
2023-01-21T06:30:09.649Z,1.83
2023-01-21T06:32:40.828Z,1.83
2023-01-21T06:35:09.283Z,1.50
2023-01-21T06:37:37.671Z,1.45
2023-01-21T06:40:08.988Z,2.42
2023-01-21T06:42:39.202Z,2.62
2023-01-21T06:45:08.236Z,1.92
2023-01-21T06:47:36.785Z,3.40
2023-01-21T06:50:05.670Z,2.28
2023-01-21T06:52:34.340Z,2.08
2023-01-21T06:55:02.689Z,2.50
2023-01-21T06:57:31.190Z,3.47
2023-01-21T07:00:00.332Z,3.60
2023-01-21T07:02:29.360Z,3.50
2023-01-21T07:04:59.163Z,2.33
2023-01-21T07:07:27.424Z,1.77
2023-01-21T07:09:59.801Z,1.27
2023-01-21T07:12:28.209Z,1.90
2023-01-21T07:14:56.386Z,2.12
2023-01-21T07:17:24.767Z,3.42
2023-01-21T07:19:53.409Z,3.28
2023-01-21T07:22:21.740Z,4.05
2023-01-21T07:24:49.907Z,4.07
2023-01-21T07:27:18.331Z,3.47
2023-01-21T07:29:46.870Z,3.83
2023-01-21T07:32:15.541Z,3.20
2023-01-21T07:34:43.891Z,3.22
2023-01-21T07:37:12.060Z,4.32
2023-01-21T07:39:40.243Z,3.33
2023-01-21T07:42:10.329Z,3.80
2023-01-21T07:44:38.496Z,3.30
2023-01-21T07:47:06.775Z,3.80
2023-01-21T07:49:35.274Z,3.20
2023-01-21T07:52:03.650Z,3.70
2023-01-21T07:54:32.123Z,2.22
2023-01-21T07:57:00.555Z,2.00
2023-01-21T07:59:28.562Z,2.95
2023-01-21T08:01:58.232Z,3.40
2023-01-21T08:04:26.826Z,2.87
2023-01-21T08:06:57.145Z,3.85
2023-01-21T08:09:26.015Z,3.67
2023-01-21T08:11:54.826Z,3.22
2023-01-21T08:14:23.039Z,6.53
2023-01-21T08:16:51.218Z,5.25
2023-01-21T08:19:19.656Z,5.37
2023-01-21T08:21:47.867Z,4.60
2023-01-21T08:24:16.119Z,3.95
2023-01-21T08:26:45.524Z,3.03
2023-01-21T08:29:13.524Z,2.67
2023-01-21T08:31:43.395Z,2.97
2023-01-21T08:34:11.770Z,3.28
2023-01-21T08:36:39.889Z,3.00
2023-01-21T08:39:10.666Z,1.95
2023-01-21T08:41:40.680Z,1.58
2023-01-21T08:44:09.018Z,2.87
2023-01-21T08:46:37.277Z,2.10
2023-01-21T08:49:06.459Z,3.67
2023-01-21T08:51:34.670Z,2.05
2023-01-21T08:54:03.285Z,2.30
2023-01-21T08:56:31.774Z,1.80
2023-01-21T08:59:00.338Z,1.75
2023-01-21T09:01:29.560Z,1.77
2023-01-21T09:04:00.485Z,1.60
2023-01-21T09:06:30.341Z,1.90
2023-01-21T09:08:58.925Z,1.30
2023-01-21T09:11:29.260Z,2.78
2023-01-21T09:14:03.480Z,2.05
2023-01-21T09:16:32.123Z,2.30
2023-01-21T09:19:00.940Z,2.45
2023-01-21T09:21:34.805Z,1.90
2023-01-21T09:24:03.528Z,2.28
2023-01-21T09:26:31.587Z,1.75
2023-01-21T09:29:02.036Z,2.45
2023-01-21T09:31:31.272Z,2.28
2023-01-21T09:34:02.367Z,3.72
2023-01-21T09:36:33.551Z,2.17
2023-01-21T09:39:02.311Z,1.58
2023-01-21T09:41:35.868Z,3.62
2023-01-21T09:44:43.844Z,2.25
2023-01-21T09:47:22.826Z,1.37
2023-01-21T09:49:54.134Z,2.08
2023-01-21T09:52:44.067Z,2.05
2023-01-21T09:55:27.322Z,1.92
2023-01-21T09:58:05.133Z,2.37
2023-01-21T10:00:46.041Z,2.10
2023-01-21T10:03:43.116Z,1.87
2023-01-21T10:06:23.202Z,2.75
2023-01-21T10:09:00.945Z,2.42
2023-01-21T10:11:48.541Z,2.58
2023-01-21T10:14:43.990Z,1.62
2023-01-21T10:17:42.060Z,2.42
2023-01-21T10:20:13.767Z,2.60
2023-01-21T10:23:15.642Z,2.72
2023-01-21T10:25:49.189Z,2.47
2023-01-21T10:28:21.765Z,1.98
2023-01-21T10:30:53.218Z,2.40
2023-01-21T10:33:27.204Z,3.25
2023-01-21T10:36:35.330Z,4.10
2023-01-21T10:39:28.153Z,3.55
2023-01-21T10:42:02.508Z,3.12
2023-01-21T10:44:36.768Z,2.60
2023-01-21T10:47:15.312Z,2.85
2023-01-21T10:49:53.338Z,2.28
2023-01-21T10:52:48.607Z,2.35
2023-01-21T10:55:37.858Z,2.90
2023-01-21T10:58:27.202Z,3.05
2023-01-21T11:00:59.235Z,2.00
2023-01-21T11:03:47.409Z,7.75
2023-01-21T11:06:18.602Z,8.75
2023-01-21T11:08:51.854Z,5.07
2023-01-21T11:11:27.443Z,4.05
2023-01-21T11:13:56.375Z,2.83
2023-01-21T11:16:34.965Z,3.10
2023-01-21T11:19:06.031Z,3.08
2023-01-21T11:21:35.027Z,2.40
2023-01-21T11:24:21.489Z,3.62
2023-01-21T11:26:59.040Z,2.10
2023-01-21T11:29:39.569Z,3.08
2023-01-21T11:32:21.291Z,2.67
2023-01-21T11:34:52.202Z,3.00
2023-01-21T11:37:28.293Z,2.65
2023-01-21T11:40:00.140Z,3.22
2023-01-21T11:42:28.426Z,2.80
2023-01-21T11:45:06.087Z,3.87
2023-01-21T11:47:38.766Z,2.62
2023-01-21T11:50:26.109Z,2.87
2023-01-21T11:53:15.273Z,3.55
2023-01-21T11:55:53.947Z,3.28
2023-01-21T11:58:32.525Z,2.17
2023-01-21T12:01:04.393Z,5.15
2023-01-21T12:03:46.012Z,3.17
2023-01-21T12:06:23.315Z,3.90
2023-01-21T12:08:56.489Z,1.98
2023-01-21T12:11:28.093Z,3.95
2023-01-21T12:14:43.544Z,2.53
2023-01-21T12:17:28.552Z,2.78
2023-01-21T12:20:15.884Z,2.22
2023-01-21T12:22:49.631Z,1.92
2023-01-21T12:25:28.090Z,2.80
2023-01-21T12:28:05.128Z,5.30
2023-01-21T12:30:47.707Z,5.43
2023-01-21T12:33:22.604Z,2.47
2023-01-21T12:35:54.513Z,2.20
2023-01-21T12:38:30.261Z,2.45
2023-01-21T12:41:26.307Z,2.45
2023-01-21T12:46:47.895Z,1.42
2023-01-21T12:49:21.911Z,2.80
2023-01-21T12:51:59.967Z,2.53
2023-01-21T12:54:38.108Z,2.37
2023-01-21T12:57:20.951Z,3.28
2023-01-21T12:59:55.455Z,2.97
2023-01-21T13:02:46.601Z,2.60
2023-01-21T13:05:41.265Z,2.70
2023-01-21T13:08:17.837Z,1.27
2023-01-21T13:10:53.550Z,2.17
2023-01-21T13:13:39.277Z,3.28
2023-01-21T13:16:09.972Z,2.50
2023-01-21T13:18:42.387Z,2.03
2023-01-21T13:21:23.334Z,1.45
2023-01-21T13:24:04.363Z,1.87
2023-01-21T13:26:51.821Z,1.92
2023-01-21T13:29:45.330Z,2.15
2023-01-21T13:32:45.405Z,1.10
2023-01-21T13:35:46.447Z,1.42
2023-01-21T13:38:17.411Z,1.73
2023-01-21T13:41:08.397Z,2.03
2023-01-21T13:43:54.736Z,2.53
2023-01-21T13:46:48.804Z,1.37
2023-01-21T13:49:38.785Z,1.73
2023-01-21T13:52:13.472Z,1.75
2023-01-21T13:55:16.667Z,0.85
2023-01-21T13:58:03.951Z,1.37
2023-01-21T14:01:05.475Z,0.95
2023-01-21T14:03:51.034Z,1.48
2023-01-21T14:06:28.776Z,0.55
2023-01-21T14:09:11.960Z,2.00
2023-01-21T14:11:46.611Z,2.12
2023-01-21T14:14:27.397Z,1.10
2023-01-21T14:17:14.237Z,1.00
2023-01-21T14:20:04.979Z,0.88
2023-01-21T14:22:58.048Z,1.15
2023-01-21T14:25:35.549Z,1.10
2023-01-21T14:28:03.957Z,2.25
2023-01-21T14:30:44.831Z,3.35
2023-01-21T14:33:21.869Z,3.92
2023-01-21T14:36:05.131Z,2.33
2023-01-21T14:38:48.994Z,1.50
2023-01-21T14:41:17.440Z,1.27
2023-01-21T14:43:48.423Z,1.23
2023-01-21T14:46:34.140Z,3.95
2023-01-21T14:49:09.294Z,3.33
2023-01-21T14:51:44.420Z,1.45
2023-01-21T14:54:34.366Z,2.83
2023-01-21T14:57:18.131Z,1.92
2023-01-21T14:59:49.122Z,2.70
2023-01-21T15:02:45.422Z,3.47
2023-01-21T15:05:22.771Z,3.20
2023-01-21T15:08:17.733Z,2.67
2023-01-21T15:11:04.965Z,2.47
2023-01-21T15:13:33.240Z,2.85
2023-01-21T15:16:32.927Z,2.42
2023-01-21T15:19:11.099Z,2.53
2023-01-21T15:21:42.969Z,2.20
2023-01-21T15:24:26.992Z,2.20
2023-01-21T15:27:19.908Z,2.28
2023-01-21T15:29:55.147Z,7.18
2023-01-21T15:32:29.527Z,9.57
2023-01-21T15:35:25.315Z,9.02
2023-01-21T15:38:02.365Z,10.23
2023-01-21T15:40:53.741Z,10.00
2023-01-21T15:43:40.157Z,6.40
2023-01-21T15:46:47.035Z,5.03
2023-01-21T15:49:19.638Z,4.07
2023-01-21T15:52:20.061Z,4.47
2023-01-21T15:55:18.903Z,1.92
2023-01-21T15:58:06.818Z,3.55
2023-01-21T16:00:44.366Z,2.62
2023-01-21T16:03:28.761Z,2.70
2023-01-21T16:06:09.370Z,4.53
2023-01-21T16:09:03.080Z,4.20
2023-01-21T16:11:49.324Z,4.80
2023-01-21T16:14:56.528Z,4.30
2023-01-21T16:18:10.464Z,5.00
2023-01-21T16:20:44.836Z,5.20
2023-01-21T16:23:17.861Z,5.60
2023-01-21T16:25:51.597Z,4.97
2023-01-21T16:28:20.858Z,4.25
2023-01-21T16:30:59.312Z,4.40
2023-01-21T16:33:27.587Z,8.57
2023-01-21T16:36:01.228Z,9.00
2023-01-21T16:38:31.854Z,5.25
2023-01-21T16:41:12.912Z,4.87
2023-01-21T16:44:03.365Z,4.47
2023-01-21T16:46:39.137Z,4.57
2023-01-21T16:49:15.081Z,4.20
2023-01-21T16:52:01.923Z,5.25
2023-01-21T16:54:34.015Z,5.82
2023-01-21T16:57:20.351Z,6.03
2023-01-21T16:59:49.887Z,4.35
2023-01-21T17:02:25.798Z,3.40
2023-01-21T17:04:57.892Z,3.10
2023-01-21T17:07:31.506Z,2.80
2023-01-21T17:10:04.951Z,2.58
2023-01-21T17:12:36.324Z,2.67
2023-01-21T17:15:18.129Z,2.42
2023-01-21T17:17:47.568Z,2.25
2023-01-21T17:20:41.843Z,3.80
2023-01-21T17:23:23.192Z,2.60
2023-01-21T17:26:20.732Z,3.30
2023-01-21T17:29:00.168Z,1.90
2023-01-21T17:31:35.027Z,2.85
2023-01-21T17:34:15.839Z,2.80
2023-01-21T17:36:46.930Z,2.35
2023-01-21T17:39:36.121Z,2.28
2023-01-21T17:42:04.860Z,3.30
2023-01-21T17:44:34.478Z,1.98
2023-01-21T17:47:02.645Z,3.03
2023-01-21T17:49:31.342Z,2.00
2023-01-21T17:52:01.375Z,2.67
2023-01-21T17:54:29.968Z,1.48
2023-01-21T17:56:59.947Z,2.72
2023-01-21T17:59:34.765Z,3.45
2023-01-21T18:02:10.342Z,2.53
2023-01-21T18:04:40.046Z,2.35
2023-01-21T18:07:26.886Z,2.55
2023-01-21T18:10:02.555Z,3.30
2023-01-21T18:12:31.076Z,2.78
2023-01-21T18:14:59.470Z,3.50
2023-01-21T18:17:28.006Z,2.62
2023-01-21T18:19:57.934Z,2.58
2023-01-21T18:22:29.296Z,2.05
2023-01-21T18:24:58.011Z,1.73
2023-01-21T18:27:26.746Z,3.03
2023-01-21T18:29:58.457Z,2.83
2023-01-21T18:32:27.205Z,2.05
2023-01-21T18:34:55.252Z,2.15
2023-01-21T18:37:25.393Z,2.40
2023-01-21T18:39:54.056Z,3.20
2023-01-21T18:42:23.508Z,3.67
2023-01-21T18:44:51.949Z,5.25
2023-01-21T18:47:20.754Z,5.80
2023-01-21T18:49:50.903Z,6.70
2023-01-21T18:52:21.292Z,5.15
2023-01-21T18:54:50.134Z,7.37
2023-01-21T18:57:22.976Z,3.15
2023-01-21T18:59:52.063Z,1.62
2023-01-21T19:02:21.352Z,2.17
2023-01-21T19:04:50.492Z,1.30
2023-01-21T19:07:21.214Z,1.62
2023-01-21T19:09:51.328Z,1.52
2023-01-21T19:12:24.880Z,1.30
2023-01-21T19:14:53.463Z,2.78
2023-01-21T19:17:33.099Z,2.08
2023-01-21T19:20:02.232Z,2.10
2023-01-21T19:22:30.842Z,1.00
2023-01-21T19:24:59.403Z,3.00
2023-01-21T19:27:34.965Z,2.42
2023-01-21T19:30:33.458Z,1.95
2023-01-21T19:33:01.875Z,1.77
2023-01-21T19:35:35.616Z,1.45
2023-01-21T19:38:11.092Z,1.27
2023-01-21T19:40:39.671Z,3.25
2023-01-21T19:43:15.497Z,2.33
2023-01-21T19:45:44.736Z,3.25
2023-01-21T19:48:15.832Z,2.20
2023-01-21T19:50:45.360Z,1.80
2023-01-21T19:53:15.890Z,1.70
2023-01-21T19:55:46.080Z,1.52
2023-01-21T19:58:19.769Z,1.50
2023-01-21T20:00:51.129Z,1.47
2023-01-21T20:03:22.907Z,3.12
2023-01-21T20:05:58.449Z,1.60
2023-01-21T20:08:31.916Z,1.75
2023-01-21T20:11:00.420Z,1.42
2023-01-21T20:13:32.526Z,1.33
2023-01-21T20:16:03.729Z,1.90
2023-01-21T20:18:33.328Z,1.95
2023-01-21T20:21:01.776Z,1.58
2023-01-21T20:23:32.609Z,2.05
2023-01-21T20:26:01.532Z,1.87
2023-01-21T20:28:39.767Z,2.60
2023-01-21T20:31:10.627Z,2.28
2023-01-21T20:33:39.120Z,1.45
2023-01-21T20:36:20.275Z,2.22
2023-01-21T20:38:48.853Z,1.42
2023-01-21T20:41:17.471Z,1.08
2023-01-21T20:43:46.197Z,1.40
2023-01-21T20:46:21.297Z,1.77
2023-01-21T20:48:52.187Z,1.23
2023-01-21T20:51:21.001Z,1.25
2023-01-21T20:53:49.512Z,1.25
2023-01-21T20:56:22.823Z,1.33
2023-01-21T20:58:51.518Z,1.73
2023-01-21T21:01:22.078Z,1.02
2023-01-21T21:03:50.916Z,0.85
2023-01-21T21:06:25.977Z,1.30
2023-01-21T21:08:55.296Z,1.55
2023-01-21T21:11:23.817Z,1.62
2023-01-21T21:13:52.557Z,1.65
2023-01-21T21:16:24.785Z,1.27
2023-01-21T21:18:53.180Z,1.10
2023-01-21T21:21:23.827Z,1.45
2023-01-21T21:23:53.539Z,1.50
2023-01-21T21:26:29.317Z,0.88
2023-01-21T21:28:58.093Z,1.23
2023-01-21T21:31:31.899Z,1.37
2023-01-21T21:34:00.802Z,1.40
2023-01-21T21:36:30.685Z,0.85
2023-01-21T21:39:00.216Z,1.00
2023-01-21T21:41:48.947Z,1.17
2023-01-21T21:44:17.205Z,1.05
2023-01-21T21:47:05.624Z,1.25
2023-01-21T21:49:33.835Z,1.10
2023-01-21T21:52:02.912Z,0.60
2023-01-21T21:54:31.236Z,0.90
2023-01-21T21:57:00.192Z,1.12
2023-01-21T21:59:28.872Z,0.75
2023-01-21T22:01:58.620Z,1.02
2023-01-21T22:04:27.275Z,1.15
2023-01-21T22:06:55.424Z,1.60
2023-01-21T22:09:23.603Z,0.82
2023-01-21T22:11:52.103Z,1.20
2023-01-21T22:14:20.482Z,1.55
2023-01-21T22:16:49.990Z,1.83
2023-01-21T22:19:18.560Z,1.15
2023-01-21T22:21:46.977Z,1.95
2023-01-21T22:24:15.776Z,1.12
2023-01-21T22:26:44.173Z,1.08
2023-01-21T22:29:12.598Z,0.93
2023-01-21T22:31:41.069Z,1.00
2023-01-21T22:34:09.571Z,0.73
2023-01-21T22:36:37.709Z,2.47
2023-01-21T22:39:05.929Z,2.42
2023-01-21T22:41:34.750Z,2.22
2023-01-21T22:44:03.467Z,1.40
2023-01-21T22:46:31.988Z,0.70
2023-01-21T22:49:00.607Z,1.77
2023-01-21T22:51:30.200Z,0.88
2023-01-21T22:54:00.328Z,1.20
2023-01-21T22:56:49.577Z,1.77
2023-01-21T22:59:17.220Z,1.17
2023-01-21T23:01:46.316Z,1.10
2023-01-21T23:04:15.875Z,1.67
2023-01-21T23:06:44.885Z,2.78
2023-01-21T23:09:15.614Z,2.08
2023-01-21T23:11:45.133Z,1.85
2023-01-21T23:14:13.844Z,2.65
2023-01-21T23:16:42.223Z,2.85
2023-01-21T23:19:10.516Z,2.40
2023-01-21T23:21:40.035Z,1.62
2023-01-21T23:24:08.436Z,1.77
2023-01-21T23:26:37.529Z,1.45
2023-01-21T23:29:05.981Z,1.52
2023-01-21T23:31:35.250Z,1.12
2023-01-21T23:34:03.717Z,1.05
2023-01-21T23:36:32.075Z,0.90
2023-01-21T23:39:00.386Z,1.20
2023-01-21T23:41:28.796Z,0.40
2023-01-21T23:44:03.530Z,1.20
2023-01-21T23:46:31.844Z,1.85
2023-01-21T23:49:00.269Z,1.00
2023-01-21T23:51:28.408Z,1.20
2023-01-21T23:53:57.135Z,1.27
2023-01-21T23:56:26.713Z,1.25
2023-01-21T23:58:55.142Z,0.70
